sensor_id;sensor_type;location;lat;lon;timestamp;pressure;altitude;pressure_sealevel;temperature;humidity
44297;BME280;51842;47.450;8.654;2022-08-07T00:01:26;96009.75;;;14.03;96.49
44297;BME280;51842;47.450;8.654;2022-08-07T00:03:52;96004.69;;;14.01;96.71
44297;BME280;51842;47.450;8.654;2022-08-07T00:06:18;96002.78;;;14.02;96.52
44297;BME280;51842;47.450;8.654;2022-08-07T00:08:50;95998.25;;;14.02;96.56
44297;BME280;51842;47.450;8.654;2022-08-07T00:11:16;96005.97;;;14.04;96.56
44297;BME280;51842;47.450;8.654;2022-08-07T00:13:43;96011.06;;;14.05;96.48
44297;BME280;51842;47.450;8.654;2022-08-07T00:16:11;95998.47;;;14.06;96.57
44297;BME280;51842;47.450;8.654;2022-08-07T00:18:38;95999.53;;;14.10;96.42
44297;BME280;51842;47.450;8.654;2022-08-07T00:21:08;95987.69;;;14.16;96.25
44297;BME280;51842;47.450;8.654;2022-08-07T00:23:39;95973.75;;;14.19;96.00
44297;BME280;51842;47.450;8.654;2022-08-07T00:26:08;95969.47;;;14.23;95.43
44297;BME280;51842;47.450;8.654;2022-08-07T00:28:38;95975.31;;;14.25;95.59
44297;BME280;51842;47.450;8.654;2022-08-07T00:31:08;95970.19;;;14.29;95.40
44297;BME280;51842;47.450;8.654;2022-08-07T00:33:37;95966.47;;;14.30;95.21
44297;BME280;51842;47.450;8.654;2022-08-07T00:36:24;95968.34;;;14.29;95.34
44297;BME280;51842;47.450;8.654;2022-08-07T00:38:59;95964.84;;;14.29;95.58
44297;BME280;51842;47.450;8.654;2022-08-07T00:41:34;95958.69;;;14.28;95.75
44297;BME280;51842;47.450;8.654;2022-08-07T00:44:00;95958.69;;;14.28;95.58
44297;BME280;51842;47.450;8.654;2022-08-07T00:46:26;95960.56;;;14.33;94.73
44297;BME280;51842;47.450;8.654;2022-08-07T00:49:07;95961.91;;;14.30;94.57
44297;BME280;51842;47.450;8.654;2022-08-07T00:51:37;95954.97;;;14.24;94.24
44297;BME280;51842;47.450;8.654;2022-08-07T00:54:04;95949.38;;;14.21;94.63
44297;BME280;51842;47.450;8.654;2022-08-07T00:56:30;95945.66;;;14.17;94.54
44297;BME280;51842;47.450;8.654;2022-08-07T00:58:57;95942.22;;;14.11;94.89
44297;BME280;51842;47.450;8.654;2022-08-07T01:01:23;95943.28;;;14.10;95.52
44297;BME280;51842;47.450;8.654;2022-08-07T01:03:50;95948.63;;;14.10;95.73
44297;BME280;51842;47.450;8.654;2022-08-07T01:06:18;95951.03;;;14.11;95.32
44297;BME280;51842;47.450;8.654;2022-08-07T01:08:46;95942.22;;;14.06;96.13
44297;BME280;51842;47.450;8.654;2022-08-07T01:11:14;95936.63;;;14.07;95.67
44297;BME280;51842;47.450;8.654;2022-08-07T01:13:44;95934.72;;;14.08;96.16
44297;BME280;51842;47.450;8.654;2022-08-07T01:16:10;95926.94;;;14.11;96.00
44297;BME280;51842;47.450;8.654;2022-08-07T01:18:37;95934.41;;;14.15;95.48
44297;BME280;51842;47.450;8.654;2022-08-07T01:21:19;95936.28;;;14.14;95.54
44297;BME280;51842;47.450;8.654;2022-08-07T01:23:47;95926.91;;;14.17;95.39
44297;BME280;51842;47.450;8.654;2022-08-07T01:26:17;95924.22;;;14.17;95.14
44297;BME280;51842;47.450;8.654;2022-08-07T01:28:50;95915.38;;;14.16;95.04
44297;BME280;51842;47.450;8.654;2022-08-07T01:31:19;95920.22;;;14.14;95.19
44297;BME280;51842;47.450;8.654;2022-08-07T01:33:46;95916.22;;;14.11;95.20
44297;BME280;51842;47.450;8.654;2022-08-07T01:36:15;95917.03;;;14.07;95.15
44297;BME280;51842;47.450;8.654;2022-08-07T01:38:51;95919.22;;;14.05;95.04
44297;BME280;51842;47.450;8.654;2022-08-07T01:41:21;95911.97;;;14.05;94.94
44297;BME280;51842;47.450;8.654;2022-08-07T01:43:54;95913.31;;;14.03;95.12
44297;BME280;51842;47.450;8.654;2022-08-07T01:46:20;95914.69;;;14.00;95.35
44297;BME280;51842;47.450;8.654;2022-08-07T01:48:49;95910.16;;;14.01;94.96
44297;BME280;51842;47.450;8.654;2022-08-07T01:51:24;95906.38;;;14.02;95.09
44297;BME280;51842;47.450;8.654;2022-08-07T01:54:03;95907.41;;;14.06;94.81
44297;BME280;51842;47.450;8.654;2022-08-07T01:56:57;95902.84;;;14.06;94.92
44297;BME280;51842;47.450;8.654;2022-08-07T01:59:41;95907.41;;;14.06;94.73
44297;BME280;51842;47.450;8.654;2022-08-07T02:02:19;95907.94;;;14.08;94.43
44297;BME280;51842;47.450;8.654;2022-08-07T02:05:06;95906.84;;;14.09;94.19
44297;BME280;51842;47.450;8.654;2022-08-07T02:07:52;95906.84;;;14.09;94.40
44297;BME280;51842;47.450;8.654;2022-08-07T02:10:24;95910.88;;;14.11;94.12
44297;BME280;51842;47.450;8.654;2022-08-07T02:12:58;95905.25;;;14.08;93.93
44297;BME280;51842;47.450;8.654;2022-08-07T02:15:31;95910.66;;;14.03;94.06
44297;BME280;51842;47.450;8.654;2022-08-07T02:18:02;95912.56;;;13.97;94.47
44297;BME280;51842;47.450;8.654;2022-08-07T02:20:33;95921.66;;;13.96;94.64
44297;BME280;51842;47.450;8.654;2022-08-07T02:23:08;95917.41;;;13.95;94.12
44297;BME280;51842;47.450;8.654;2022-08-07T02:25:45;95919.31;;;13.89;94.76
44297;BME280;51842;47.450;8.654;2022-08-07T02:28:14;95919.06;;;13.86;94.86
44297;BME280;51842;47.450;8.654;2022-08-07T02:30:43;95911.28;;;13.84;95.49
44297;BME280;51842;47.450;8.654;2022-08-07T02:33:13;95909.41;;;13.85;95.83
44297;BME280;51842;47.450;8.654;2022-08-07T02:35:49;95903.50;;;13.88;95.71
44297;BME280;51842;47.450;8.654;2022-08-07T02:38:19;95909.69;;;13.88;95.62
44297;BME280;51842;47.450;8.654;2022-08-07T02:40:55;95910.47;;;13.89;95.54
44297;BME280;51842;47.450;8.654;2022-08-07T02:43:22;95908.06;;;13.87;95.67
44297;BME280;51842;47.450;8.654;2022-08-07T02:45:52;95905.69;;;13.86;95.15
44297;BME280;51842;47.450;8.654;2022-08-07T02:48:19;95909.41;;;13.85;94.66
44297;BME280;51842;47.450;8.654;2022-08-07T02:50:49;95910.28;;;13.75;95.15
44297;BME280;51842;47.450;8.654;2022-08-07T02:53:28;95904.44;;;13.68;95.64
44297;BME280;51842;47.450;8.654;2022-08-07T02:56:02;95911.13;;;13.65;95.48
44297;BME280;51842;47.450;8.654;2022-08-07T02:58:39;95890.81;;;13.59;96.29
44297;BME280;51842;47.450;8.654;2022-08-07T03:01:09;95887.63;;;13.57;96.12
44297;BME280;51842;47.450;8.654;2022-08-07T03:03:39;95879.59;;;13.57;96.07
44297;BME280;51842;47.450;8.654;2022-08-07T03:06:13;95879.88;;;13.56;95.80
44297;BME280;51842;47.450;8.654;2022-08-07T03:08:40;95892.47;;;13.50;96.06
44297;BME280;51842;47.450;8.654;2022-08-07T03:11:07;95892.50;;;13.45;96.80
44297;BME280;51842;47.450;8.654;2022-08-07T03:13:36;95889.03;;;13.45;96.75
44297;BME280;51842;47.450;8.654;2022-08-07T03:16:05;95889.84;;;13.45;96.54
44297;BME280;51842;47.450;8.654;2022-08-07T03:18:38;95897.06;;;13.45;96.90
44297;BME280;51842;47.450;8.654;2022-08-07T03:21:06;95903.47;;;13.43;97.03
44297;BME280;51842;47.450;8.654;2022-08-07T03:23:40;95897.56;;;13.47;97.03
44297;BME280;51842;47.450;8.654;2022-08-07T03:26:12;95898.38;;;13.47;96.81
44297;BME280;51842;47.450;8.654;2022-08-07T03:28:42;95901.03;;;13.47;96.92
44297;BME280;51842;47.450;8.654;2022-08-07T03:31:10;95901.03;;;13.47;96.58
44297;BME280;51842;47.450;8.654;2022-08-07T03:34:06;95904.28;;;13.44;96.61
44297;BME280;51842;47.450;8.654;2022-08-07T03:36:39;95903.75;;;13.42;96.77
44297;BME280;51842;47.450;8.654;2022-08-07T03:39:13;95892.78;;;13.43;96.68
44297;BME280;51842;47.450;8.654;2022-08-07T03:41:41;95892.78;;;13.43;96.61
44297;BME280;51842;47.450;8.654;2022-08-07T03:44:10;95885.28;;;13.46;96.37
44297;BME280;51842;47.450;8.654;2022-08-07T03:46:37;95892.50;;;13.45;96.83
44297;BME280;51842;47.450;8.654;2022-08-07T03:49:09;95885.81;;;13.48;96.74
44297;BME280;51842;47.450;8.654;2022-08-07T03:51:39;95885.25;;;13.51;96.82
44297;BME280;51842;47.450;8.654;2022-08-07T03:54:05;95890.56;;;13.56;96.91
44297;BME280;51842;47.450;8.654;2022-08-07T03:56:34;95884.97;;;13.57;96.79
44297;BME280;51842;47.450;8.654;2022-08-07T03:59:12;95890.81;;;13.59;96.65
44297;BME280;51842;47.450;8.654;2022-08-07T04:01:42;95887.88;;;13.61;96.63
44297;BME280;51842;47.450;8.654;2022-08-07T04:04:18;95888.94;;;13.60;96.82
44297;BME280;51842;47.450;8.654;2022-08-07T04:06:51;95889.75;;;13.60;96.52
44297;BME280;51842;47.450;8.654;2022-08-07T04:09:19;95893.50;;;13.59;96.95
44297;BME280;51842;47.450;8.654;2022-08-07T04:11:53;95892.94;;;13.62;96.79
44297;BME280;51842;47.450;8.654;2022-08-07T04:14:25;95888.91;;;13.65;96.64
44297;BME280;51842;47.450;8.654;2022-08-07T04:16:52;95897.75;;;13.65;96.49
44297;BME280;51842;47.450;8.654;2022-08-07T04:19:18;95910.63;;;13.63;96.06
44297;BME280;51842;47.450;8.654;2022-08-07T04:22:05;95901.50;;;13.64;95.91
44297;BME280;51842;47.450;8.654;2022-08-07T04:24:35;95897.50;;;13.62;96.27
44297;BME280;51842;47.450;8.654;2022-08-07T04:27:06;95915.16;;;13.63;96.36
44297;BME280;51842;47.450;8.654;2022-08-07T04:29:35;95914.59;;;13.66;96.11
44297;BME280;51842;47.450;8.654;2022-08-07T04:32:07;95914.34;;;13.68;96.20
44297;BME280;51842;47.450;8.654;2022-08-07T04:34:39;95912.19;;;13.70;96.45
44297;BME280;51842;47.450;8.654;2022-08-07T04:37:09;95914.31;;;13.73;97.48
44297;BME280;51842;47.450;8.654;2022-08-07T04:39:36;95929.28;;;13.79;98.01
44297;BME280;51842;47.450;8.654;2022-08-07T04:42:03;95915.31;;;13.87;98.07
44297;BME280;51842;47.450;8.654;2022-08-07T04:44:29;95926.22;;;13.96;97.77
44297;BME280;51842;47.450;8.654;2022-08-07T04:47:18;95929.94;;;14.05;97.70
44297;BME280;51842;47.450;8.654;2022-08-07T04:50:34;95920.72;;;14.16;97.36
44297;BME280;51842;47.450;8.654;2022-08-07T04:53:34;95926.03;;;14.26;97.11
44297;BME280;51842;47.450;8.654;2022-08-07T04:59:56;95924.78;;;14.53;96.09
44297;BME280;51842;47.450;8.654;2022-08-07T05:06:06;95922.19;;;14.72;95.08
44297;BME280;51842;47.450;8.654;2022-08-07T05:09:04;95927.22;;;14.78;94.42
44297;BME280;51842;47.450;8.654;2022-08-07T05:11:53;95931.75;;;14.83;93.93
44297;BME280;51842;47.450;8.654;2022-08-07T05:14:47;95925.25;;;14.89;93.72
44297;BME280;51842;47.450;8.654;2022-08-07T05:17:19;95934.56;;;14.97;93.45
44297;BME280;51842;47.450;8.654;2022-08-07T05:19:55;95935.03;;;15.04;93.46
44297;BME280;51842;47.450;8.654;2022-08-07T05:22:24;95928.81;;;15.09;92.77
44297;BME280;51842;47.450;8.654;2022-08-07T05:24:54;95927.94;;;15.13;92.33
44297;BME280;51842;47.450;8.654;2022-08-07T05:27:30;95929.50;;;15.19;92.28
44297;BME280;51842;47.450;8.654;2022-08-07T05:29:58;95932.13;;;15.24;91.34
44297;BME280;51842;47.450;8.654;2022-08-07T05:32:37;95933.94;;;15.29;91.02
44297;BME280;51842;47.450;8.654;2022-08-07T05:35:11;95935.50;;;15.35;90.67
44297;BME280;51842;47.450;8.654;2022-08-07T05:37:39;95939.72;;;15.41;90.26
44297;BME280;51842;47.450;8.654;2022-08-07T05:40:12;95944.25;;;15.46;90.29
44297;BME280;51842;47.450;8.654;2022-08-07T05:42:42;95943.38;;;15.50;89.80
44297;BME280;51842;47.450;8.654;2022-08-07T05:45:23;95946.28;;;15.54;89.83
44297;BME280;51842;47.450;8.654;2022-08-07T05:47:54;95941.66;;;15.60;89.39
44297;BME280;51842;47.450;8.654;2022-08-07T05:50:23;95952.59;;;15.63;89.55
44297;BME280;51842;47.450;8.654;2022-08-07T05:52:49;95953.13;;;15.65;89.18
44297;BME280;51842;47.450;8.654;2022-08-07T05:55:15;95951.50;;;15.69;88.67
44297;BME280;51842;47.450;8.654;2022-08-07T05:57:44;95951.00;;;15.67;88.40
44297;BME280;51842;47.450;8.654;2022-08-07T06:00:12;95949.13;;;15.63;88.96
44297;BME280;51842;47.450;8.654;2022-08-07T06:02:40;95947.25;;;15.63;88.74
44297;BME280;51842;47.450;8.654;2022-08-07T06:05:13;95952.31;;;15.70;88.59
44297;BME280;51842;47.450;8.654;2022-08-07T06:07:41;95959.50;;;15.75;88.73
44297;BME280;51842;47.450;8.654;2022-08-07T06:10:10;95955.59;;;15.86;88.69
44297;BME280;51842;47.450;8.654;2022-08-07T06:12:37;95963.13;;;15.84;87.80
44297;BME280;51842;47.450;8.654;2022-08-07T06:15:04;95952.91;;;15.86;88.18
44297;BME280;51842;47.450;8.654;2022-08-07T06:17:34;95960.41;;;15.89;88.13
44297;BME280;51842;47.450;8.654;2022-08-07T06:20:07;95957.13;;;15.92;88.32
44297;BME280;51842;47.450;8.654;2022-08-07T06:22:37;95951.16;;;15.95;88.08
44297;BME280;51842;47.450;8.654;2022-08-07T06:25:05;95954.09;;;15.99;87.65
44297;BME280;51842;47.450;8.654;2022-08-07T06:27:31;95959.09;;;16.05;87.86
44297;BME280;51842;47.450;8.654;2022-08-07T06:30:00;95962.22;;;16.12;87.25
44297;BME280;51842;47.450;8.654;2022-08-07T06:32:35;95966.59;;;16.08;86.53
44297;BME280;51842;47.450;8.654;2022-08-07T06:35:08;95964.38;;;16.10;86.66
44297;BME280;51842;47.450;8.654;2022-08-07T06:37:39;95961.00;;;16.05;86.17
44297;BME280;51842;47.450;8.654;2022-08-07T06:40:09;95958.78;;;16.07;86.21
44297;BME280;51842;47.450;8.654;2022-08-07T06:42:37;95956.91;;;16.07;86.00
44297;BME280;51842;47.450;8.654;2022-08-07T06:45:14;95962.84;;;16.04;85.97
44297;BME280;51842;47.450;8.654;2022-08-07T06:47:42;95960.91;;;16.10;85.92
44297;BME280;51842;47.450;8.654;2022-08-07T06:50:10;95954.53;;;16.06;86.14
44297;BME280;51842;47.450;8.654;2022-08-07T06:52:46;95955.84;;;16.08;85.96
44297;BME280;51842;47.450;8.654;2022-08-07T06:55:26;95957.22;;;16.06;86.02
44297;BME280;51842;47.450;8.654;2022-08-07T06:58:00;95956.09;;;16.07;85.44
44297;BME280;51842;47.450;8.654;2022-08-07T07:00:37;95953.63;;;16.10;85.74
44297;BME280;51842;47.450;8.654;2022-08-07T07:03:06;95954.16;;;16.12;85.84
44297;BME280;51842;47.450;8.654;2022-08-07T07:05:33;95943.94;;;16.14;85.49
44297;BME280;51842;47.450;8.654;2022-08-07T07:07:59;95947.09;;;16.16;85.22
44297;BME280;51842;47.450;8.654;2022-08-07T07:10:33;95950.31;;;16.18;84.84
44297;BME280;51842;47.450;8.654;2022-08-07T07:13:38;95948.94;;;16.21;84.71
44297;BME280;51842;47.450;8.654;2022-08-07T07:16:19;95954.88;;;16.18;84.68
44297;BME280;51842;47.450;8.654;2022-08-07T07:19:00;95954.88;;;16.18;84.64
44297;BME280;51842;47.450;8.654;2022-08-07T07:21:39;95951.69;;;16.16;84.72
44297;BME280;51842;47.450;8.654;2022-08-07T07:24:06;95952.19;;;16.18;84.96
44297;BME280;51842;47.450;8.654;2022-08-07T07:26:38;95950.88;;;16.15;84.70
44297;BME280;51842;47.450;8.654;2022-08-07T07:29:13;95951.19;;;16.14;85.13
44297;BME280;51842;47.450;8.654;2022-08-07T07:31:47;95947.84;;;16.22;84.94
44297;BME280;51842;47.450;8.654;2022-08-07T07:34:27;95948.03;;;16.26;84.81
44297;BME280;51842;47.450;8.654;2022-08-07T07:37:00;95953.22;;;16.22;84.99
44297;BME280;51842;47.450;8.654;2022-08-07T07:39:31;95963.69;;;16.24;84.95
44297;BME280;51842;47.450;8.654;2022-08-07T07:42:02;95952.63;;;16.25;84.51
44297;BME280;51842;47.450;8.654;2022-08-07T07:44:32;95953.72;;;16.24;84.38
44297;BME280;51842;47.450;8.654;2022-08-07T07:47:02;95950.00;;;16.20;83.95
44297;BME280;51842;47.450;8.654;2022-08-07T07:49:31;95960.47;;;16.22;84.25
44297;BME280;51842;47.450;8.654;2022-08-07T07:52:02;95959.47;;;16.17;84.53
44297;BME280;51842;47.450;8.654;2022-08-07T07:54:31;95962.94;;;16.18;84.50
44297;BME280;51842;47.450;8.654;2022-08-07T07:57:00;95959.97;;;16.19;84.30
44297;BME280;51842;47.450;8.654;2022-08-07T07:59:27;95964.31;;;16.15;84.56
44297;BME280;51842;47.450;8.654;2022-08-07T08:01:57;95955.31;;;16.25;84.43
44297;BME280;51842;47.450;8.654;2022-08-07T08:04:28;95957.22;;;16.25;84.02
44297;BME280;51842;47.450;8.654;2022-08-07T08:07:02;95963.53;;;16.34;83.82
44297;BME280;51842;47.450;8.654;2022-08-07T08:09:31;95961.03;;;16.37;84.08
44297;BME280;51842;47.450;8.654;2022-08-07T08:12:02;95957.56;;;16.37;83.78
44297;BME280;51842;47.450;8.654;2022-08-07T08:14:33;95965.63;;;16.37;83.67
44297;BME280;51842;47.450;8.654;2022-08-07T08:17:04;95962.84;;;16.42;83.29
44297;BME280;51842;47.450;8.654;2022-08-07T08:19:35;95962.84;;;16.42;82.99
44297;BME280;51842;47.450;8.654;2022-08-07T08:22:10;95969.31;;;16.41;82.97
44297;BME280;51842;47.450;8.654;2022-08-07T08:24:56;95956.88;;;16.45;82.86
44297;BME280;51842;47.450;8.654;2022-08-07T08:27:49;95964.75;;;16.41;83.07
44297;BME280;51842;47.450;8.654;2022-08-07T08:30:23;95960.69;;;16.44;82.58
44297;BME280;51842;47.450;8.654;2022-08-07T08:33:03;95962.50;;;16.49;82.92
44297;BME280;51842;47.450;8.654;2022-08-07T08:35:36;95968.56;;;16.54;82.55
44297;BME280;51842;47.450;8.654;2022-08-07T08:38:13;95970.41;;;16.59;82.09
44297;BME280;51842;47.450;8.654;2022-08-07T08:41:21;95965.22;;;16.62;82.61
44297;BME280;51842;47.450;8.654;2022-08-07T08:44:53;95970.75;;;16.71;81.58
44297;BME280;51842;47.450;8.654;2022-08-07T08:51:26;95975.41;;;16.84;81.49
44297;BME280;51842;47.450;8.654;2022-08-07T08:54:15;95979.28;;;16.92;80.81
44297;BME280;51842;47.450;8.654;2022-08-07T08:56:52;95987.88;;;16.94;80.51
44297;BME280;51842;47.450;8.654;2022-08-07T09:02:55;95985.38;;;16.98;80.30
44297;BME280;51842;47.450;8.654;2022-08-07T09:08:44;95978.28;;;17.21;80.07
44297;BME280;51842;47.450;8.654;2022-08-07T09:11:39;95982.88;;;17.34;79.95
44297;BME280;51842;47.450;8.654;2022-08-07T09:17:37;95992.25;;;17.50;79.17
44297;BME280;51842;47.450;8.654;2022-08-07T09:30:05;95991.78;;;17.90;77.53
44297;BME280;51842;47.450;8.654;2022-08-07T09:36:38;95992.75;;;18.21;76.12
44297;BME280;51842;47.450;8.654;2022-08-07T09:39:24;95999.00;;;18.31;75.76
44297;BME280;51842;47.450;8.654;2022-08-07T09:42:14;95994.50;;;18.40;75.66
44297;BME280;51842;47.450;8.654;2022-08-07T09:44:55;95989.56;;;18.56;74.93
44297;BME280;51842;47.450;8.654;2022-08-07T09:48:14;95988.50;;;18.65;73.79
44297;BME280;51842;47.450;8.654;2022-08-07T09:51:37;95997.19;;;18.76;73.93
44297;BME280;51842;47.450;8.654;2022-08-07T09:54:37;95985.34;;;18.86;73.44
44297;BME280;51842;47.450;8.654;2022-08-07T10:00:07;95984.00;;;18.97;72.55
44297;BME280;51842;47.450;8.654;2022-08-07T10:03:37;95986.44;;;19.07;72.51
44297;BME280;51842;47.450;8.654;2022-08-07T10:07:04;95981.22;;;19.11;72.62
44297;BME280;51842;47.450;8.654;2022-08-07T10:14:03;95988.16;;;19.03;73.16
44297;BME280;51842;47.450;8.654;2022-08-07T10:17:14;95988.69;;;19.14;72.20
44297;BME280;51842;47.450;8.654;2022-08-07T10:23:33;95978.44;;;19.25;71.81
44297;BME280;51842;47.450;8.654;2022-08-07T10:30:10;95974.34;;;19.36;71.57
44297;BME280;51842;47.450;8.654;2022-08-07T10:45:42;95976.97;;;19.58;71.50
44297;BME280;51842;47.450;8.654;2022-08-07T10:48:41;95977.59;;;19.55;71.24
44297;BME280;51842;47.450;8.654;2022-08-07T10:55:20;95973.66;;;19.53;70.93
44297;BME280;51842;47.450;8.654;2022-08-07T11:09:00;95965.41;;;20.15;68.23
44297;BME280;51842;47.450;8.654;2022-08-07T11:11:52;95970.03;;;20.32;68.84
44297;BME280;51842;47.450;8.654;2022-08-07T11:14:42;95969.38;;;20.18;67.80
44297;BME280;51842;47.450;8.654;2022-08-07T11:17:38;95960.47;;;20.26;67.30
44297;BME280;51842;47.450;8.654;2022-08-07T11:21:10;95964.63;;;20.41;68.10
44297;BME280;51842;47.450;8.654;2022-08-07T11:29:55;95956.06;;;20.56;66.46
44297;BME280;51842;47.450;8.654;2022-08-07T11:35:27;95953.34;;;20.82;66.08
44297;BME280;51842;47.450;8.654;2022-08-07T11:38:21;95950.28;;;20.84;66.63
44297;BME280;51842;47.450;8.654;2022-08-07T11:41:38;95945.19;;;20.91;65.86
44297;BME280;51842;47.450;8.654;2022-08-07T11:58:08;95945.63;;;21.10;64.30
44297;BME280;51842;47.450;8.654;2022-08-07T12:07:18;95938.41;;;21.40;63.71
44297;BME280;51842;47.450;8.654;2022-08-07T12:10:23;95929.41;;;21.48;63.28
44297;BME280;51842;47.450;8.654;2022-08-07T12:14:23;95937.53;;;21.48;63.52
44297;BME280;51842;47.450;8.654;2022-08-07T12:16:27;95934.88;;;21.78;62.98
44297;BME280;51842;47.450;8.654;2022-08-07T12:25:38;95911.78;;;22.23;60.44
44297;BME280;51842;47.450;8.654;2022-08-07T12:28:52;95917.84;;;22.40;60.65
44297;BME280;51842;47.450;8.654;2022-08-07T12:31:48;95916.78;;;22.54;58.60
44297;BME280;51842;47.450;8.654;2022-08-07T12:34:28;95902.69;;;22.60;58.56
44297;BME280;51842;47.450;8.654;2022-08-07T12:37:02;95907.69;;;22.71;58.89
44297;BME280;51842;47.450;8.654;2022-08-07T12:39:34;95901.69;;;22.98;57.62
44297;BME280;51842;47.450;8.654;2022-08-07T12:42:06;95903.97;;;23.21;58.11
44297;BME280;51842;47.450;8.654;2022-08-07T12:44:38;95904.78;;;23.46;57.60
44297;BME280;51842;47.450;8.654;2022-08-07T12:54:05;95888.38;;;23.91;54.62
44297;BME280;51842;47.450;8.654;2022-08-07T12:56:43;95899.47;;;23.49;55.13
44297;BME280;51842;47.450;8.654;2022-08-07T12:59:19;95897.53;;;23.62;55.35
44297;BME280;51842;47.450;8.654;2022-08-07T13:02:28;95895.72;;;23.91;53.62
44297;BME280;51842;47.450;8.654;2022-08-07T13:05:57;95887.94;;;24.30;52.88
44297;BME280;51842;47.450;8.654;2022-08-07T13:12:51;95878.94;;;24.13;52.44
44297;BME280;51842;47.450;8.654;2022-08-07T13:24:29;95884.31;;;23.85;52.93
44297;BME280;51842;47.450;8.654;2022-08-07T13:27:40;95884.91;;;24.19;52.14
44297;BME280;51842;47.450;8.654;2022-08-07T13:30:10;95883.06;;;23.83;52.99
44297;BME280;51842;47.450;8.654;2022-08-07T13:33:04;95884.31;;;23.85;53.11
44297;BME280;51842;47.450;8.654;2022-08-07T13:35:53;95880.91;;;23.88;52.60
44297;BME280;51842;47.450;8.654;2022-08-07T13:38:43;95875.88;;;24.02;52.21
44297;BME280;51842;47.450;8.654;2022-08-07T13:41:53;95875.56;;;23.92;51.75
44297;BME280;51842;47.450;8.654;2022-08-07T13:44:27;95876.34;;;23.68;52.70
44297;BME280;51842;47.450;8.654;2022-08-07T13:47:00;95877.03;;;23.16;53.75
44297;BME280;51842;47.450;8.654;2022-08-07T13:49:37;95883.75;;;22.85;53.92
44297;BME280;51842;47.450;8.654;2022-08-07T13:52:07;95878.72;;;22.75;55.41
44297;BME280;51842;47.450;8.654;2022-08-07T13:54:37;95878.53;;;22.80;54.70
44297;BME280;51842;47.450;8.654;2022-08-07T13:57:10;95879.50;;;22.96;55.18
44297;BME280;51842;47.450;8.654;2022-08-07T13:59:50;95883.63;;;22.81;54.53
44297;BME280;51842;47.450;8.654;2022-08-07T14:02:33;95873.13;;;22.59;55.66
44297;BME280;51842;47.450;8.654;2022-08-07T14:05:14;95875.13;;;22.50;55.48
44297;BME280;51842;47.450;8.654;2022-08-07T14:07:48;95878.69;;;22.29;56.52
44297;BME280;51842;47.450;8.654;2022-08-07T14:10:42;95883.69;;;22.39;56.40
44297;BME280;51842;47.450;8.654;2022-08-07T14:13:20;95870.59;;;22.42;56.81
44297;BME280;51842;47.450;8.654;2022-08-07T14:16:02;95867.47;;;22.52;57.13
44297;BME280;51842;47.450;8.654;2022-08-07T14:18:52;95859.88;;;22.45;57.28
44297;BME280;51842;47.450;8.654;2022-08-07T14:21:50;95860.66;;;22.46;56.33
44297;BME280;51842;47.450;8.654;2022-08-07T14:24:58;95863.56;;;22.40;56.65
44297;BME280;51842;47.450;8.654;2022-08-07T14:27:50;95870.72;;;22.45;58.02
44297;BME280;51842;47.450;8.654;2022-08-07T14:30:22;95863.50;;;22.49;57.04
44297;BME280;51842;47.450;8.654;2022-08-07T14:33:04;95865.09;;;22.50;57.45
44297;BME280;51842;47.450;8.654;2022-08-07T14:35:39;95867.53;;;22.43;57.54
44297;BME280;51842;47.450;8.654;2022-08-07T14:38:08;95867.25;;;22.57;56.97
44297;BME280;51842;47.450;8.654;2022-08-07T14:40:40;95870.84;;;22.49;55.33
44297;BME280;51842;47.450;8.654;2022-08-07T14:43:12;95868.31;;;22.44;56.51
44297;BME280;51842;47.450;8.654;2022-08-07T14:45:50;95870.19;;;22.52;56.85
44297;BME280;51842;47.450;8.654;2022-08-07T14:48:27;95861.31;;;22.43;57.03
44297;BME280;51842;47.450;8.654;2022-08-07T14:51:00;95872.91;;;22.31;56.70
44297;BME280;51842;47.450;8.654;2022-08-07T14:53:36;95869.16;;;22.44;56.76
44297;BME280;51842;47.450;8.654;2022-08-07T14:56:08;95871.53;;;22.25;56.26
44297;BME280;51842;47.450;8.654;2022-08-07T14:58:42;95869.22;;;22.35;57.12
44297;BME280;51842;47.450;8.654;2022-08-07T15:01:15;95867.34;;;22.27;56.49
44297;BME280;51842;47.450;8.654;2022-08-07T15:03:43;95867.47;;;22.31;57.10
44297;BME280;51842;47.450;8.654;2022-08-07T15:06:19;95861.31;;;22.43;57.39
44297;BME280;51842;47.450;8.654;2022-08-07T15:08:48;95861.50;;;22.58;56.49
44297;BME280;51842;47.450;8.654;2022-08-07T15:11:24;95857.91;;;22.67;57.32
44297;BME280;51842;47.450;8.654;2022-08-07T15:14:05;95858.06;;;22.82;56.79
44297;BME280;51842;47.450;8.654;2022-08-07T15:16:49;95860.38;;;23.05;57.19
44297;BME280;51842;47.450;8.654;2022-08-07T15:19:25;95859.50;;;23.25;56.10
44297;BME280;51842;47.450;8.654;2022-08-07T15:21:59;95856.66;;;23.46;55.63
44297;BME280;51842;47.450;8.654;2022-08-07T15:24:38;95857.69;;;23.54;54.44
44297;BME280;51842;47.450;8.654;2022-08-07T15:27:22;95856.34;;;23.48;53.27
44297;BME280;51842;47.450;8.654;2022-08-07T15:29:58;95855.19;;;23.61;54.50
44297;BME280;51842;47.450;8.654;2022-08-07T15:32:33;95854.59;;;23.68;54.56
44297;BME280;51842;47.450;8.654;2022-08-07T15:35:25;95852.09;;;23.87;53.24
44297;BME280;51842;47.450;8.654;2022-08-07T15:38:01;95851.41;;;23.90;51.76
44297;BME280;51842;47.450;8.654;2022-08-07T15:40:31;95847.41;;;24.00;52.74
44297;BME280;51842;47.450;8.654;2022-08-07T15:45:41;95836.22;;;24.42;50.65
44297;BME280;51842;47.450;8.654;2022-08-07T15:48:30;95824.66;;;24.61;51.36
44297;BME280;51842;47.450;8.654;2022-08-07T15:51:09;95836.63;;;25.04;49.63
44297;BME280;51842;47.450;8.654;2022-08-07T15:53:46;95829.63;;;25.70;49.20
44297;BME280;51842;47.450;8.654;2022-08-07T15:56:16;95840.72;;;26.31;46.88
44297;BME280;51842;47.450;8.654;2022-08-07T15:58:50;95840.63;;;26.47;46.00
44297;BME280;51842;47.450;8.654;2022-08-07T16:01:26;95844.75;;;26.57;46.46
44297;BME280;51842;47.450;8.654;2022-08-07T16:04:05;95854.31;;;26.28;47.05
44297;BME280;51842;47.450;8.654;2022-08-07T16:06:57;95846.34;;;26.58;46.18
44297;BME280;51842;47.450;8.654;2022-08-07T16:10:15;95851.38;;;26.37;46.24